ADDS METAR Data INFO
IDs: Format: Raw Decoded Include TAF

Data at: 0344 UTC 19 Feb 2018

KFKN 190335Z AUTO 10003KT 10SM CLR 03/01 A3051 RMK AO2 T00270006
KFKN 190315Z AUTO 00000KT 10SM CLR 04/01 A3051 RMK AO2 T00390007
KFKN 190255Z AUTO 00000KT 10SM CLR 04/01 A3050 RMK AO2 T00390008
KFKN 190235Z AUTO 00000KT 10SM CLR 04/01 A3049 RMK AO2 T00430009
KFKN 190215Z AUTO 11004KT 10SM CLR 04/01 A3049 RMK AO2 T00400010
KFKN 190155Z AUTO 11003KT 10SM CLR 04/01 A3049 RMK AO2 T00400009
KFKN 190135Z AUTO 12003KT 10SM CLR 05/01 A3048 RMK AO2 T00450007
KFKN 190115Z AUTO 10004KT 10SM CLR 05/01 A3048 RMK AO2 T00460008
KFKN 190055Z AUTO 12004KT 10SM CLR 03/01 A3047 RMK AO2 T00320012
KFKN 190035Z AUTO 00000KT 10SM CLR 03/01 A3047 RMK AO2 T00320007
KFKN 190015Z AUTO 00000KT 10SM CLR 04/02 A3046 RMK AO2 T00440015
KFKN 182355Z AUTO 09003KT 10SM CLR 05/00 A3045 RMK AO2 T00520004 10128 20052
KFKN 182335Z AUTO 07003KT 10SM CLR 06/01 A3045 RMK AO2 T00600005
KFKN 182315Z AUTO 08006KT 10SM CLR 07/01 A3045 RMK AO2 T00710005
KFKN 182255Z AUTO 08007KT 10SM CLR 08/01 A3044 RMK AO2 T00800007
KFKN 182235Z AUTO 08010KT 10SM CLR 09/01 A3043 RMK AO2 T00890012
KFKN 182215Z AUTO 08008KT 10SM CLR 10/02 A3042 RMK AO2 T00980018
KFKN 182155Z AUTO 06009KT 10SM CLR 11/02 A3042 RMK AO2 T01050024
KFKN 182135Z AUTO 08007KT 10SM CLR 11/03 A3042 RMK AO2 T01120029
KFKN 182115Z AUTO 10007KT 10SM CLR 11/03 A3041 RMK AO2 T01140027
KFKN 182055Z AUTO 05008KT 10SM SCT040 12/03 A3040 RMK AO2 T01180030
KFKN 182035Z AUTO 06007KT 10SM SCT042 12/03 A3039 RMK AO2 T01200030
KFKN 182015Z AUTO 08006KT 10SM BKN040 11/03 A3039 RMK AO2 T01100028
KFKN 181955Z AUTO 07007KT 10SM BKN038 13/03 A3039 RMK AO2 T01250029
KFKN 181935Z AUTO 08006KT 10SM BKN038 11/03 A3039 RMK AO2 T01140028
KFKN 181915Z AUTO 08004KT 10SM BKN038 12/03 A3039 RMK AO2 T01190027
KFKN 181855Z AUTO 03004KT 10SM BKN038 12/03 A3039 RMK AO2 T01210027
KFKN 181835Z AUTO 12005KT 10SM SCT038 12/03 A3039 RMK AO2 T01190030
KFKN 181815Z AUTO 04006KT 10SM CLR 11/02 A3039 RMK AO2 T01140024
KFKN 181755Z AUTO 06008G15KT 10SM CLR 11/02 A3040 RMK AO2 T01130022 10115 20009
KFKN 181735Z AUTO 07010KT 10SM CLR 11/02 A3041 RMK AO2 T01110020
KFKN 181715Z AUTO 07007KT 10SM CLR 11/03 A3042 RMK AO2 T01120027
KFKN 181655Z AUTO 05010G15KT 10SM CLR 11/03 A3041 RMK AO2 T01060025
KFKN 181635Z AUTO 04008KT 10SM CLR 10/03 A3042 RMK AO2 T01030028
KFKN 181615Z AUTO 05010KT 10SM SCT027 10/03 A3042 RMK AO2 T00990029
KFKN 181555Z AUTO 04007KT 10SM CLR 10/04 A3040 RMK AO2 T00990038
KFKN 181535Z AUTO 03010KT 10SM CLR 09/04 A3040 RMK AO2 T00910042
KFKN 181515Z AUTO 01011KT 10SM CLR 09/05 A3039 RMK AO2 T00900046
KFKN 181455Z AUTO 03007KT 10SM SCT011 08/05 A3038 RMK AO2 T00780052
KFKN 181435Z AUTO 04006KT 10SM SCT008 07/05 A3037 RMK AO2 T00710054
KFKN 181415Z AUTO 02009KT 10SM BKN006 06/04 A3035 RMK AO2 T00550043
KFKN 181355Z AUTO 02009KT 10SM BKN004 05/05 A3034 RMK AO2 T00530046
KFKN 181335Z AUTO 03006KT 10SM SCT004 05/05 A3032 RMK AO2 T00500047
KFKN 181315Z AUTO 01007KT 10SM CLR 04/04 A3029 RMK AO2 T00430040
KFKN 181255Z AUTO 01006KT 10SM CLR 04/04 A3029 RMK AO2 T00370035
KFKN 181235Z AUTO 00000KT 7SM CLR 02/02 A3026 RMK AO2 T00190016
KFKN 181215Z AUTO 00000KT 10SM CLR 02/02 A3024 RMK AO2 T00180016
KFKN 181155Z AUTO 01003KT 4SM BR CLR 02/01 A3023 RMK AO2 70009 T00150011 10045 20013
KFKN 181135Z AUTO 05003KT 3/4SM BR VV005 02/02 A3021 RMK AO2 T00210017
KFKN 181115Z AUTO 00000KT 10SM CLR 03/03 A3021 RMK AO2 T00310028
KFKN 181055Z AUTO 00000KT 10SM CLR 04/03 A3019 RMK AO2 T00360033
KFKN 181035Z AUTO 23003KT 10SM CLR 04/04 A3019 RMK AO2 T00380035
KFKN 181015Z AUTO 25004KT 10SM CLR 04/04 A3018 RMK AO2 T00400036
KFKN 180955Z AUTO 27004KT 10SM CLR 04/04 A3017 RMK AO2 T00400037
KFKN 180935Z AUTO 00000KT 10SM CLR 04/04 A3016 RMK AO2 T00410038
KFKN 180915Z AUTO 25003KT 10SM SCT005 04/04 A3015 RMK AO2 T00410038
KFKN 180855Z AUTO 00000KT 10SM BKN005 04/04 A3013 RMK AO2 T00420040
KFKN 180835Z AUTO 24003KT 10SM OVC005 04/04 A3011 RMK AO2 T00430040
KFKN 180815Z AUTO 27003KT 10SM OVC005 05/04 A3011 RMK AO2 T00450041
KFKN 180755Z AUTO 26004KT 10SM OVC005 05/04 A3012 RMK AO2 T00450041
KFKN 180735Z AUTO 28005KT 10SM OVC005 05/04 A3011 RMK AO2 T00450041
KFKN 180715Z AUTO 26004KT 10SM OVC005 04/04 A3010 RMK AO2 T00430040
KFKN 180655Z AUTO 25004KT 10SM OVC005 04/04 A3008 RMK AO2 T00430040
KFKN 180635Z AUTO 27003KT 10SM OVC007 04/04 A3008 RMK AO2 T00430040
KFKN 180615Z AUTO 27004KT 10SM OVC007 04/04 A3008 RMK AO2 T00420040
KFKN 180555Z AUTO 28005KT 10SM OVC007 04/04 A3010 RMK AO2 60004 T00430040 10050 20040
KFKN 180535Z AUTO 28003KT 10SM BKN005 OVC016 04/04 A3008 RMK AO2 T00420040
KFKN 180515Z AUTO 30004KT 10SM OVC005 04/04 A3009 RMK AO2 T00420040
KFKN 180455Z AUTO 29003KT 7SM -RA BKN005 OVC017 04/04 A3010 RMK AO2 P0002 T00420040 400960026
KFKN 180435Z AUTO 29004KT 10SM DZ BKN005 OVC017 04/04 A3009 RMK AO2 T00420040
KFKN 180415Z AUTO 00000KT 10SM OVC005 04/04 A3007 RMK AO2 T00400037
KFKN 180355Z AUTO 00000KT 10SM OVC005 04/04 A3007 RMK AO2 T00400036
KFKN 180335Z AUTO 00000KT 4SM BR BKN003 OVC009 04/04 A3008 RMK AO2 T00400036
KFKN 180315Z AUTO 32003KT 3SM BR OVC003 04/04 A3009 RMK AO2 T00400037
KFKN 180255Z AUTO 33004KT 3SM BR OVC003 04/04 A3011 RMK AO2 60002 T00420040
KFKN 180235Z AUTO 33006KT 3SM BR OVC003 05/04 A3011 RMK AO2 T00450041
KFKN 180215Z AUTO 00000KT 4SM BR OVC005 04/04 A3010 RMK AO2 T00430040
KFKN 180155Z AUTO 00000KT 3SM BR OVC005 05/04 A3010 RMK AO2 T00450041
KFKN 180135Z AUTO 04004KT 5SM -DZ OVC005 05/04 A3010 RMK AO2 T00450042
KFKN 180115Z AUTO 04003KT 7SM OVC005 05/05 A3011 RMK AO2 T00470045
KFKN 180055Z AUTO 00000KT 10SM OVC005 05/05 A3013 RMK AO2 P0002 T00470045
KFKN 180035Z AUTO 00000KT 10SM -DZ BKN005 OVC012 05/05 A3012 RMK AO2 P0002 T00500046
KFKN 180015Z AUTO 05003KT 10SM RA SCT005 BKN012 OVC019 05/05 A3013 RMK AO2 P0001 T00500046
KFKN 172355Z AUTO 00000KT 10SM -DZ SCT003 OVC021 05/05 A3014 RMK AO2 P0001 60005 T00500046 10081 20048
KFKN 172335Z AUTO 05003KT 10SM SCT003 OVC021 05/05 A3015 RMK AO2 T00490046
KFKN 172315Z AUTO 00000KT 7SM DZ SCT010 OVC021 05/05 A3016 RMK AO2 T00480045
KFKN 172255Z AUTO 32004KT 5SM RA SCT004 SCT009 OVC023 05/05 A3018 RMK AO2 P0002 T00500046
KFKN 172235Z AUTO 00000KT 4SM DZ SCT004 OVC023 05/05 A3018 RMK AO2 P0001 T00480045
KFKN 172215Z AUTO 11004KT 2SM +DZ SCT004 BKN015 OVC023 05/05 A3015 RMK AO2 P0001 T00480045
KFKN 172155Z AUTO 00000KT 2 1/2SM DZ OVC013 05/05 A3018 RMK AO2 P0002 T00500047
KFKN 172135Z AUTO 00000KT 5SM DZ SCT005 OVC013 05/05 A3017 RMK AO2 P0002 T00500046
KFKN 172115Z AUTO 00000KT 2SM +DZ OVC015 05/05 A3018 RMK AO2 P0001 T00520045
KFKN 172055Z AUTO 11003KT 3SM +DZ BKN017 OVC023 06/04 A3016 RMK AO2 T00560041
KFKN 172035Z AUTO 10006KT 7SM OVC024 07/03 A3015 RMK AO2 T00660034
KFKN 172015Z AUTO 11006KT 10SM OVC026 07/03 A3016 RMK AO2 T00700027
KFKN 171955Z AUTO 10007KT 10SM OVC030 07/03 A3015 RMK AO2 T00730029
KFKN 171935Z AUTO 09008KT 7SM OVC034 07/02 A3018 RMK AO2 T00730023
KFKN 171915Z AUTO 13005KT 10SM OVC037 08/02 A3019 RMK AO2 T00790020
KFKN 171855Z AUTO 10008KT 10SM OVC042 08/02 A3021 RMK AO2 T00800021
KFKN 171835Z AUTO 11007KT 10SM SCT029 OVC046 08/02 A3022 RMK AO2 T00800022
KFKN 171815Z AUTO 09007KT 10SM BKN029 OVC046 08/02 A3024 RMK AO2 T00770018
KFKN 171755Z AUTO 08008KT 10SM SCT029 OVC046 08/01 A3026 RMK AO2 T00750014 10076 20031
KFKN 171735Z AUTO 10010KT 10SM SCT029 OVC048 08/01 A3027 RMK AO2 T00760014
KFKN 171715Z AUTO 11006KT 10SM BKN031 OVC048 07/01 A3030 RMK AO2 T00720010
KFKN 171655Z AUTO 12007KT 10SM SCT031 BKN048 OVC060 07/01 A3031 RMK AO2 T00740007
KFKN 171635Z AUTO 10008KT 10SM SCT031 OVC060 07/01 A3030 RMK AO2 T00740005
KFKN 171615Z AUTO 05006KT 10SM OVC060 07/00 A3034 RMK AO2 T00690003
KFKN 171555Z AUTO 08006KT 10SM OVC060 07/00 A3035 RMK AO2 T00660000